Main page
METAR-TAF:

METAR-TAF

Airports :

Cadjehoun Airport

Cotonou, Benin

latitude: 06-21N, longitude: 002-23E, elevation: 5 m

Current weather observation

The report was made 34 minutes ago, at 21:00 UTC
Wind 14 kt from the Southwest
Temperature 28°C
Humidity 84%
Pressure 1011 hPa
Visibility 10 km or more
Scattered clouds at a height of 1100 ft

METAR: DBBB 202100Z 22014KT 9999 SCT011 28/25 Q1011 NOSIG

Time: 22:34 (21:34 UTC)

Forecast

The report was made 4 hours and 34 minutes ago, at 17:00 UTC
Forecast valid from 20 at 18 UTC to 21 at 24 UTC
Wind 10 kt from the Southwest
Visibility 10 km or more
Scattered clouds at a height of 1300 ft
Temporary
from 21 at 13 UTC to 21 at 19 UTC
Broken clouds at a height of 1200 ft
Few clouds at a height of 2300 ft, Cumulonimbus.
thunderstorm

TAF: DBBB 201700Z 2018/2124 22010KT 9999 SCT013 TEMPO 2113/2119 TS BKN012 FEW023CB

Weather observations and forecasts of more than 4000 airports (METAR and TAF reports).

The available stations are represented by yellow and red dots on the map.

Hover mouse over dot to see the name of the station.

Then click to see weather observations and forecasts.

To change the map : click on the green buttons with a black cross to zoom in, on the green button with a dash to zoom out, or on the green arrows for adjacent maps.


METAR-TAF: